createdAt,value
2023-03-05T00:01:26.492Z,0.30
2023-03-05T00:03:55.349Z,0.30
2023-03-05T00:06:25.070Z,0.30
2023-03-05T00:08:53.397Z,0.30
2023-03-05T00:11:21.133Z,0.30
2023-03-05T00:13:48.752Z,0.20
2023-03-05T00:16:16.348Z,0.30
2023-03-05T00:18:43.598Z,0.20
2023-03-05T00:21:26.860Z,0.30
2023-03-05T00:23:54.287Z,0.30
2023-03-05T00:26:22.881Z,0.30
2023-03-05T00:28:51.811Z,0.30
2023-03-05T00:31:20.925Z,0.30
2023-03-05T00:33:55.879Z,0.20
2023-03-05T00:36:24.416Z,0.50
2023-03-05T00:38:51.894Z,0.40
2023-03-05T00:41:18.793Z,0.30
2023-03-05T00:43:45.778Z,0.30
2023-03-05T00:46:12.593Z,0.30
2023-03-05T00:48:39.445Z,0.30
2023-03-05T00:51:06.571Z,0.30
2023-03-05T00:53:33.364Z,0.30
2023-03-05T00:56:00.135Z,0.40
2023-03-05T00:58:26.938Z,0.40
2023-03-05T01:00:56.909Z,0.30
2023-03-05T01:03:23.671Z,0.30
2023-03-05T01:05:50.427Z,0.30
2023-03-05T01:08:17.612Z,0.30
2023-03-05T01:10:44.357Z,0.40
2023-03-05T01:13:11.299Z,0.40
2023-03-05T01:15:38.224Z,0.40
2023-03-05T01:18:09.874Z,0.40
2023-03-05T01:20:36.718Z,0.30
2023-03-05T01:23:03.471Z,0.30
2023-03-05T01:25:30.246Z,0.30
2023-03-05T01:27:57.089Z,0.30
2023-03-05T01:30:24.381Z,0.30
2023-03-05T01:32:51.119Z,0.30
2023-03-05T01:35:21.154Z,0.30
2023-03-05T01:37:48.680Z,0.30
2023-03-05T01:40:18.934Z,0.40
2023-03-05T01:42:55.524Z,0.40
2023-03-05T01:45:22.509Z,0.30
2023-03-05T01:47:49.253Z,0.30
2023-03-05T01:50:22.891Z,0.30
2023-03-05T01:53:00.134Z,0.30
2023-03-05T01:55:30.818Z,0.50
2023-03-05T01:58:08.110Z,0.50
2023-03-05T02:00:41.137Z,0.50
2023-03-05T02:03:10.401Z,0.40
2023-03-05T02:05:39.112Z,0.40
2023-03-05T02:08:09.080Z,0.30
2023-03-05T02:11:00.395Z,0.40
2023-03-05T02:13:31.589Z,0.50
2023-03-05T02:16:00.327Z,0.60
2023-03-05T02:18:27.526Z,0.60
2023-03-05T02:20:57.242Z,0.50
2023-03-05T02:23:26.721Z,0.40
2023-03-05T02:25:53.470Z,0.40
2023-03-05T02:28:26.429Z,0.40
2023-03-05T02:30:53.180Z,0.40
2023-03-05T02:33:20.838Z,0.40
2023-03-05T02:35:48.422Z,0.40
2023-03-05T02:38:17.795Z,0.40
2023-03-05T02:40:44.868Z,0.40
2023-03-05T02:43:14.539Z,0.40
2023-03-05T02:45:41.457Z,0.50
2023-03-05T02:48:08.335Z,0.40
2023-03-05T02:50:36.580Z,0.40
2023-03-05T02:53:03.445Z,0.30
2023-03-05T02:55:30.324Z,0.30
2023-03-05T02:57:57.188Z,0.30
2023-03-05T03:00:24.108Z,0.30
2023-03-05T03:02:51.067Z,0.40
2023-03-05T03:05:18.199Z,0.40
2023-03-05T03:07:45.373Z,0.30
2023-03-05T03:10:12.614Z,0.30
2023-03-05T03:12:44.665Z,0.30
2023-03-05T03:15:13.370Z,0.40
2023-03-05T03:17:40.210Z,0.40
2023-03-05T03:20:14.069Z,0.40
2023-03-05T03:22:41.702Z,0.40
2023-03-05T03:25:09.116Z,0.40
2023-03-05T03:27:35.884Z,0.40
2023-03-05T03:30:04.878Z,0.40
2023-03-05T03:32:32.760Z,0.30
2023-03-05T03:34:59.945Z,0.30
2023-03-05T03:37:26.757Z,0.30
2023-03-05T03:39:53.524Z,0.30
2023-03-05T03:42:22.352Z,0.30
2023-03-05T03:44:49.830Z,0.40
2023-03-05T03:47:17.002Z,0.40
2023-03-05T03:49:43.702Z,0.50
2023-03-05T03:52:10.495Z,0.60
2023-03-05T03:54:37.400Z,0.50
2023-03-05T03:57:04.409Z,0.50
2023-03-05T03:59:31.241Z,0.40
2023-03-05T04:01:57.961Z,0.40
2023-03-05T04:04:26.451Z,0.50
2023-03-05T04:06:53.226Z,0.40
2023-03-05T04:09:19.956Z,0.40
2023-03-05T04:11:46.708Z,0.50
2023-03-05T04:14:13.413Z,0.40
2023-03-05T04:16:40.130Z,0.50
2023-03-05T04:19:06.816Z,0.50
2023-03-05T04:21:33.593Z,0.50
2023-03-05T04:24:00.330Z,0.40
2023-03-05T04:26:27.104Z,0.40
2023-03-05T04:28:53.840Z,0.40
2023-03-05T04:31:20.712Z,0.40
2023-03-05T04:33:47.637Z,0.40
2023-03-05T04:36:14.384Z,0.40
2023-03-05T04:38:41.386Z,0.50
2023-03-05T04:41:08.118Z,0.50
2023-03-05T04:43:34.961Z,0.50
2023-03-05T04:46:01.915Z,0.40
2023-03-05T04:48:28.636Z,0.40
2023-03-05T04:50:57.727Z,0.40
2023-03-05T04:53:26.287Z,0.50
2023-03-05T04:55:56.540Z,0.40
2023-03-05T04:58:24.065Z,0.40
2023-03-05T05:00:51.226Z,0.40
2023-03-05T05:03:18.220Z,0.50
2023-03-05T05:05:45.046Z,0.50
2023-03-05T05:08:11.815Z,0.60
2023-03-05T05:10:40.092Z,0.50
2023-03-05T05:13:07.125Z,0.50
2023-03-05T05:15:34.020Z,0.50
2023-03-05T05:18:00.750Z,0.50
2023-03-05T05:20:27.511Z,0.50
2023-03-05T05:22:54.333Z,0.60
2023-03-05T05:25:21.079Z,0.60
2023-03-05T05:27:47.829Z,0.60
2023-03-05T05:30:14.765Z,0.60
2023-03-05T05:32:41.555Z,0.50
2023-03-05T05:35:09.725Z,0.50
2023-03-05T05:37:36.520Z,0.50
2023-03-05T05:40:05.642Z,0.40
2023-03-05T05:42:33.325Z,0.50
2023-03-05T05:45:02.866Z,0.50
2023-03-05T05:47:30.165Z,0.50
2023-03-05T05:49:57.142Z,0.50
2023-03-05T05:52:23.964Z,0.50
2023-03-05T05:54:50.780Z,0.60
2023-03-05T05:57:17.577Z,0.60
2023-03-05T05:59:44.549Z,0.60
2023-03-05T06:02:11.561Z,0.60
2023-03-05T06:04:39.964Z,0.50
2023-03-05T06:07:07.042Z,0.50
2023-03-05T06:09:35.962Z,0.60
2023-03-05T06:12:02.813Z,0.50
2023-03-05T06:14:29.537Z,0.60
2023-03-05T06:16:56.331Z,0.60
2023-03-05T06:19:23.190Z,0.60
2023-03-05T06:21:50.048Z,0.60
2023-03-05T06:24:19.193Z,0.70
2023-03-05T06:26:46.777Z,0.60
2023-03-05T06:29:13.942Z,0.60
2023-03-05T06:31:40.903Z,0.60
2023-03-05T06:34:07.714Z,0.50
2023-03-05T06:36:34.515Z,0.60
2023-03-05T06:39:01.242Z,0.60
2023-03-05T06:41:30.297Z,0.50
2023-03-05T06:43:59.083Z,0.50
2023-03-05T06:46:28.361Z,0.50
2023-03-05T06:48:57.284Z,0.50
2023-03-05T06:51:26.559Z,0.60
2023-03-05T06:53:53.985Z,0.60
2023-03-05T06:56:22.242Z,0.50
2023-03-05T06:58:51.106Z,0.60
2023-03-05T07:01:18.928Z,0.70
2023-03-05T07:03:49.681Z,0.80
2023-03-05T07:06:16.816Z,0.80
2023-03-05T07:08:44.830Z,0.70
2023-03-05T07:11:21.124Z,0.60
2023-03-05T07:13:48.544Z,0.60
2023-03-05T07:16:21.520Z,0.60
2023-03-05T07:18:48.709Z,0.50
2023-03-05T07:21:19.305Z,0.70
2023-03-05T07:23:46.304Z,0.60
2023-03-05T07:26:14.005Z,0.60
2023-03-05T07:28:41.394Z,0.70
2023-03-05T07:31:12.609Z,0.70
2023-03-05T07:33:39.568Z,0.70
2023-03-05T07:36:10.834Z,0.60
2023-03-05T07:38:37.629Z,0.50
2023-03-05T07:41:05.906Z,0.70
2023-03-05T07:43:32.985Z,0.70
2023-03-05T07:45:59.888Z,0.60
2023-03-05T07:48:26.808Z,0.60
2023-03-05T07:51:01.869Z,0.60
2023-03-05T07:53:28.774Z,0.60
2023-03-05T07:55:55.717Z,0.60
2023-03-05T07:58:22.614Z,0.50
2023-03-05T08:00:49.727Z,0.50
2023-03-05T08:03:16.548Z,0.50
2023-03-05T08:05:43.655Z,0.50
2023-03-05T08:08:10.552Z,0.50
2023-03-05T08:10:37.796Z,0.50
2023-03-05T08:13:04.969Z,0.50
2023-03-05T08:15:31.815Z,0.50
2023-03-05T08:17:59.425Z,0.50
2023-03-05T08:20:26.462Z,0.70
2023-03-05T08:22:53.307Z,0.60
2023-03-05T08:25:20.123Z,0.60
2023-03-05T08:27:47.724Z,0.60
2023-03-05T08:30:19.784Z,0.70
2023-03-05T08:32:48.180Z,0.70
2023-03-05T08:35:14.991Z,0.70
2023-03-05T08:37:41.741Z,0.80
2023-03-05T08:40:10.186Z,0.80
2023-03-05T08:42:36.975Z,0.70
2023-03-05T08:45:03.924Z,0.70
2023-03-05T08:47:30.655Z,0.70
2023-03-05T08:49:58.440Z,0.70
2023-03-05T08:52:27.262Z,0.70
2023-03-05T08:54:54.140Z,0.80
2023-03-05T08:57:20.978Z,0.80
2023-03-05T08:59:48.412Z,0.80
2023-03-05T09:02:15.279Z,0.90
2023-03-05T09:04:42.032Z,0.80
2023-03-05T09:07:09.209Z,0.80
2023-03-05T09:09:37.131Z,0.80
2023-03-05T09:12:04.120Z,0.80
2023-03-05T09:14:31.005Z,0.80
2023-03-05T09:16:58.197Z,0.70
2023-03-05T09:19:25.695Z,0.70
2023-03-05T09:21:53.589Z,0.70
2023-03-05T09:24:22.083Z,0.70
2023-03-05T09:26:48.855Z,0.80
2023-03-05T09:29:15.558Z,0.90
2023-03-05T09:31:44.097Z,0.90
2023-03-05T09:34:11.887Z,0.80
2023-03-05T09:36:38.768Z,0.80
2023-03-05T09:39:07.027Z,0.80
2023-03-05T09:41:50.290Z,0.80
2023-03-05T09:44:28.981Z,0.80
2023-03-05T09:47:16.332Z,0.80
2023-03-05T09:49:43.010Z,0.80
2023-03-05T09:52:22.121Z,0.80
2023-03-05T09:54:54.523Z,0.80
2023-03-05T09:57:32.363Z,0.80
2023-03-05T10:00:31.214Z,0.80
2023-03-05T10:03:02.183Z,0.80
2023-03-05T10:05:45.469Z,0.90
2023-03-05T10:08:13.530Z,0.90
2023-03-05T10:10:47.290Z,0.80
2023-03-05T10:13:23.397Z,0.80
2023-03-05T10:16:06.116Z,0.90
2023-03-05T10:19:07.841Z,0.90
2023-03-05T10:21:44.597Z,1.00
2023-03-05T10:24:45.005Z,1.00
2023-03-05T10:27:20.892Z,0.90
2023-03-05T10:30:12.488Z,1.00
2023-03-05T10:33:03.706Z,1.00
2023-03-05T10:35:55.740Z,1.00
2023-03-05T10:38:38.501Z,1.00
2023-03-05T10:41:23.881Z,1.00
2023-03-05T10:44:25.457Z,1.10
2023-03-05T10:46:53.876Z,1.00
2023-03-05T10:49:28.589Z,1.00
2023-03-05T10:52:06.117Z,1.00
2023-03-05T10:54:38.522Z,0.90
2023-03-05T10:57:23.306Z,0.90
2023-03-05T11:00:17.108Z,0.90
2023-03-05T11:03:02.055Z,1.00
2023-03-05T11:05:45.919Z,1.10
2023-03-05T11:08:32.914Z,1.00
2023-03-05T11:11:05.949Z,1.00
2023-03-05T11:13:33.890Z,1.00
2023-03-05T11:16:05.899Z,1.00
2023-03-05T11:18:37.662Z,1.00
2023-03-05T11:21:09.535Z,1.00
2023-03-05T11:23:36.689Z,1.10
2023-03-05T11:26:23.707Z,1.10
2023-03-05T11:28:53.493Z,1.10
2023-03-05T11:31:28.807Z,1.10
2023-03-05T11:34:04.864Z,1.10
2023-03-05T11:36:37.513Z,1.10
2023-03-05T11:39:10.111Z,1.10
2023-03-05T11:41:55.084Z,1.20
2023-03-05T11:44:43.237Z,1.20
2023-03-05T11:47:24.840Z,1.10
2023-03-05T11:50:00.385Z,1.10
2023-03-05T11:52:32.206Z,1.10
2023-03-05T11:55:17.946Z,1.20
2023-03-05T11:57:51.694Z,1.20
2023-03-05T12:00:24.543Z,1.30
2023-03-05T12:02:54.602Z,1.20
2023-03-05T12:05:21.739Z,1.20
2023-03-05T12:07:55.510Z,1.20
2023-03-05T12:10:24.545Z,1.20
2023-03-05T12:13:12.454Z,1.20
2023-03-05T12:15:45.865Z,1.20
2023-03-05T12:18:23.141Z,1.10
2023-03-05T12:21:02.676Z,1.20
2023-03-05T12:23:29.602Z,1.40
2023-03-05T12:25:59.301Z,1.30
2023-03-05T12:28:32.150Z,1.20
2023-03-05T12:31:01.523Z,1.20
2023-03-05T12:33:37.529Z,1.20
2023-03-05T12:36:22.612Z,1.30
2023-03-05T12:38:53.774Z,1.30
2023-03-05T12:41:23.833Z,1.30
2023-03-05T12:44:18.708Z,1.30
2023-03-05T12:47:06.541Z,1.30
2023-03-05T12:49:45.375Z,1.40
2023-03-05T12:52:24.037Z,1.40
2023-03-05T12:55:20.252Z,1.40
2023-03-05T12:57:49.665Z,1.30
2023-03-05T13:00:27.867Z,1.20
2023-03-05T13:03:00.032Z,1.20
2023-03-05T13:05:36.643Z,1.30
2023-03-05T13:08:15.898Z,1.30
2023-03-05T13:10:43.746Z,1.30
2023-03-05T13:13:16.156Z,1.30
2023-03-05T13:15:47.312Z,1.30
2023-03-05T13:18:26.869Z,1.20
2023-03-05T13:21:06.526Z,1.30
2023-03-05T13:23:35.020Z,1.20
2023-03-05T13:26:10.197Z,1.30
2023-03-05T13:28:39.277Z,1.30
2023-03-05T13:31:19.030Z,1.30
2023-03-05T13:33:56.184Z,1.30
2023-03-05T13:36:25.903Z,1.30
2023-03-05T13:38:53.187Z,1.30
2023-03-05T13:41:20.129Z,1.30
2023-03-05T13:43:54.217Z,1.40
2023-03-05T13:46:31.171Z,1.40
2023-03-05T13:49:17.209Z,1.40
2023-03-05T13:51:46.866Z,1.30
2023-03-05T13:54:16.906Z,1.40
2023-03-05T13:57:32.119Z,1.40
2023-03-05T13:59:59.794Z,1.30
2023-03-05T14:02:29.048Z,1.30
2023-03-05T14:04:56.143Z,1.40
2023-03-05T14:07:34.603Z,1.30
2023-03-05T14:10:03.087Z,1.30
2023-03-05T14:12:38.984Z,1.20
2023-03-05T14:15:24.770Z,1.30
2023-03-05T14:17:52.082Z,1.20
2023-03-05T14:20:27.371Z,1.30
2023-03-05T14:22:57.624Z,1.30
2023-03-05T14:25:36.393Z,1.30
2023-03-05T14:28:28.118Z,1.30
2023-03-05T14:30:57.133Z,1.20
2023-03-05T14:33:29.629Z,1.30
2023-03-05T14:35:58.380Z,1.30
2023-03-05T14:38:28.851Z,1.30
2023-03-05T14:40:56.237Z,1.30
2023-03-05T14:43:23.180Z,1.30
2023-03-05T14:45:49.993Z,1.30
2023-03-05T14:48:18.968Z,1.40
2023-03-05T14:50:52.480Z,1.40
2023-03-05T14:53:22.919Z,1.40
2023-03-05T14:55:53.670Z,1.40
2023-03-05T14:58:22.599Z,1.40
2023-03-05T15:00:51.185Z,1.40
2023-03-05T15:03:20.107Z,1.40
2023-03-05T15:05:49.614Z,1.30
2023-03-05T15:08:23.296Z,1.30
2023-03-05T15:10:50.644Z,1.30
2023-03-05T15:13:17.822Z,1.30
2023-03-05T15:15:46.623Z,1.40
2023-03-05T15:18:14.939Z,1.30
2023-03-05T15:20:42.735Z,1.40
2023-03-05T15:23:09.463Z,1.40
2023-03-05T15:25:36.274Z,1.30
2023-03-05T15:28:03.027Z,1.40
2023-03-05T15:30:35.415Z,1.40
2023-03-05T15:33:05.880Z,1.40
2023-03-05T15:35:32.754Z,1.40
2023-03-05T15:37:59.617Z,1.40
2023-03-05T15:40:27.775Z,1.30
2023-03-05T15:42:59.134Z,1.40
2023-03-05T15:45:26.429Z,1.40
2023-03-05T15:47:54.121Z,1.50
2023-03-05T15:50:21.506Z,1.40
2023-03-05T15:52:49.151Z,1.50
2023-03-05T15:55:18.179Z,1.40
2023-03-05T15:57:47.166Z,1.30
2023-03-05T16:00:15.931Z,1.40
2023-03-05T16:02:42.688Z,1.40
2023-03-05T16:05:10.356Z,1.30
2023-03-05T16:07:40.197Z,1.40
2023-03-05T16:10:10.349Z,1.40
2023-03-05T16:12:42.972Z,1.40
2023-03-05T16:15:16.373Z,1.50
2023-03-05T16:17:45.428Z,1.40
2023-03-05T16:20:13.319Z,1.40
2023-03-05T16:22:40.126Z,1.40
2023-03-05T16:25:07.394Z,1.40
2023-03-05T16:27:34.377Z,1.40
2023-03-05T16:30:01.108Z,1.40
2023-03-05T16:32:27.969Z,1.40
2023-03-05T16:34:54.795Z,1.40
2023-03-05T16:37:23.438Z,1.40
2023-03-05T16:39:50.381Z,1.50
2023-03-05T16:42:17.568Z,1.40
2023-03-05T16:44:45.129Z,1.40
2023-03-05T16:47:12.227Z,1.30
2023-03-05T16:49:39.794Z,1.30
2023-03-05T16:52:18.416Z,1.30
2023-03-05T16:54:45.818Z,1.30
2023-03-05T16:57:12.696Z,1.30
2023-03-05T16:59:39.464Z,1.30
2023-03-05T17:02:06.501Z,1.30
2023-03-05T17:04:33.320Z,1.30
2023-03-05T17:07:00.041Z,1.20
2023-03-05T17:09:26.797Z,1.30
2023-03-05T17:11:54.513Z,1.30
2023-03-05T17:14:21.857Z,1.30
2023-03-05T17:16:48.725Z,1.30
2023-03-05T17:19:16.823Z,1.40
2023-03-05T17:21:43.636Z,1.40
2023-03-05T17:24:11.446Z,1.30
2023-03-05T17:26:38.571Z,1.30
2023-03-05T17:29:06.641Z,1.30
2023-03-05T17:31:34.688Z,1.40
2023-03-05T17:34:01.591Z,1.30
2023-03-05T17:36:28.383Z,1.20
2023-03-05T17:38:55.167Z,1.30
2023-03-05T17:41:22.081Z,1.30
2023-03-05T17:43:48.932Z,1.30
2023-03-05T17:46:15.896Z,1.30
2023-03-05T17:48:42.987Z,1.20
2023-03-05T17:51:12.719Z,1.20
2023-03-05T17:53:40.211Z,1.20
2023-03-05T17:56:12.610Z,1.30
2023-03-05T17:58:40.449Z,1.20
2023-03-05T18:01:07.965Z,1.20
2023-03-05T18:03:35.746Z,1.20
2023-03-05T18:06:03.738Z,1.10
2023-03-05T18:08:30.608Z,1.20
2023-03-05T18:10:57.418Z,1.20
2023-03-05T18:13:24.130Z,1.20
2023-03-05T18:15:50.849Z,1.20
2023-03-05T18:18:18.396Z,1.20
2023-03-05T18:20:45.694Z,1.20
2023-03-05T18:23:12.612Z,1.20
2023-03-05T18:25:39.345Z,1.20
2023-03-05T18:28:11.645Z,1.10
2023-03-05T18:30:40.525Z,1.10
2023-03-05T18:33:08.372Z,1.10
2023-03-05T18:35:35.535Z,1.20
2023-03-05T18:38:02.338Z,1.10
2023-03-05T18:40:32.442Z,1.20
2023-03-05T18:43:00.832Z,1.20
2023-03-05T18:45:28.618Z,1.20
2023-03-05T18:47:56.673Z,1.20
2023-03-05T18:50:27.471Z,1.20
2023-03-05T18:52:54.465Z,1.20
2023-03-05T18:55:24.793Z,1.20
2023-03-05T18:57:51.798Z,1.10
2023-03-05T19:00:21.616Z,1.10
2023-03-05T19:02:48.585Z,1.20
2023-03-05T19:05:16.323Z,1.20
2023-03-05T19:07:43.350Z,1.20
2023-03-05T19:10:12.256Z,1.20
2023-03-05T19:12:49.056Z,1.10
2023-03-05T19:15:16.635Z,1.20
2023-03-05T19:17:43.429Z,1.20
2023-03-05T19:20:12.697Z,1.10
2023-03-05T19:22:39.925Z,1.10
2023-03-05T19:25:07.317Z,1.10
2023-03-05T19:27:34.634Z,1.10
2023-03-05T19:30:01.639Z,1.10
2023-03-05T19:32:28.442Z,1.10
2023-03-05T19:34:56.809Z,1.10
2023-03-05T19:37:24.612Z,1.00
2023-03-05T19:39:51.484Z,1.10
2023-03-05T19:42:18.363Z,1.10
2023-03-05T19:44:45.336Z,1.00
2023-03-05T19:47:12.287Z,1.10
2023-03-05T19:49:39.481Z,1.00
2023-03-05T19:52:06.911Z,1.10
2023-03-05T19:54:33.726Z,1.10
2023-03-05T19:57:00.676Z,1.10
2023-03-05T19:59:27.433Z,1.10
2023-03-05T20:01:54.402Z,1.10
2023-03-05T20:04:23.205Z,1.10
2023-03-05T20:06:50.368Z,1.10
2023-03-05T20:09:17.619Z,1.10
2023-03-05T20:11:45.002Z,1.00
2023-03-05T20:14:15.228Z,1.00
2023-03-05T20:16:43.403Z,1.00
2023-03-05T20:19:16.822Z,1.00
2023-03-05T20:21:44.655Z,1.00
2023-03-05T20:24:14.827Z,1.00
2023-03-05T20:26:43.643Z,1.00
2023-03-05T20:29:10.672Z,1.00
2023-03-05T20:31:38.245Z,1.00
2023-03-05T20:34:07.474Z,1.00
2023-03-05T20:36:34.758Z,1.00
2023-03-05T20:39:03.392Z,1.00
2023-03-05T20:41:31.290Z,1.00
2023-03-05T20:43:58.086Z,1.00
2023-03-05T20:46:30.712Z,1.00
2023-03-05T20:49:00.072Z,1.00
2023-03-05T20:51:33.877Z,1.00
2023-03-05T20:54:03.982Z,1.00
2023-03-05T20:56:32.442Z,1.10
2023-03-05T20:59:01.118Z,1.00
2023-03-05T21:01:28.373Z,1.00
2023-03-05T21:03:57.167Z,1.10
2023-03-05T21:06:24.995Z,1.00
2023-03-05T21:08:52.050Z,1.00
2023-03-05T21:11:19.556Z,1.00
2023-03-05T21:13:46.536Z,0.90
2023-03-05T21:16:19.161Z,0.90
2023-03-05T21:18:46.259Z,0.90
2023-03-05T21:21:12.996Z,0.80
2023-03-05T21:23:39.722Z,0.80
2023-03-05T21:26:06.499Z,0.80
2023-03-05T21:28:33.387Z,0.80
2023-03-05T21:31:07.120Z,0.80
2023-03-05T21:33:33.957Z,0.80
2023-03-05T21:36:00.873Z,0.80
2023-03-05T21:38:30.208Z,0.80
2023-03-05T21:40:58.616Z,0.80
2023-03-05T21:43:26.496Z,0.80
2023-03-05T21:45:54.715Z,0.80
2023-03-05T21:48:23.275Z,0.80
2023-03-05T21:50:51.134Z,0.80
2023-03-05T21:53:19.107Z,0.80
2023-03-05T21:56:15.506Z,0.80
2023-03-05T21:58:42.211Z,0.80
2023-03-05T22:01:11.777Z,0.80
2023-03-05T22:03:38.601Z,0.80
2023-03-05T22:06:14.096Z,0.80
2023-03-05T22:08:41.404Z,0.80
2023-03-05T22:11:16.591Z,0.70
2023-03-05T22:13:43.658Z,0.70
2023-03-05T22:16:11.440Z,0.70
2023-03-05T22:18:38.218Z,0.70
2023-03-05T22:21:05.764Z,0.70
2023-03-05T22:23:36.667Z,0.70
2023-03-05T22:26:05.993Z,0.70
2023-03-05T22:28:33.799Z,0.70
2023-03-05T22:31:00.743Z,0.70
2023-03-05T22:33:28.051Z,0.70
2023-03-05T22:35:54.845Z,0.70
2023-03-05T22:38:22.028Z,0.70
2023-03-05T22:40:49.860Z,0.70
2023-03-05T22:43:17.995Z,0.70
2023-03-05T22:45:45.226Z,0.60
2023-03-05T22:48:12.691Z,0.60
2023-03-05T22:50:41.859Z,0.60
2023-03-05T22:53:08.757Z,0.60
2023-03-05T22:55:42.226Z,0.60
2023-03-05T22:58:09.273Z,0.70
2023-03-05T23:00:36.224Z,0.70
2023-03-05T23:03:03.126Z,0.70
2023-03-05T23:05:29.985Z,0.70
2023-03-05T23:07:56.714Z,0.70
2023-03-05T23:10:27.252Z,0.60
2023-03-05T23:12:56.386Z,0.60
2023-03-05T23:15:27.576Z,0.60
2023-03-05T23:17:54.375Z,0.60
2023-03-05T23:20:23.652Z,0.60
2023-03-05T23:22:52.897Z,0.60
2023-03-05T23:25:22.850Z,0.60
2023-03-05T23:27:50.408Z,0.60
2023-03-05T23:30:19.720Z,0.60
2023-03-05T23:32:48.773Z,0.50
2023-03-05T23:35:22.521Z,0.50
2023-03-05T23:37:49.592Z,0.60
2023-03-05T23:40:28.031Z,0.60
2023-03-05T23:42:55.345Z,0.50
2023-03-05T23:45:23.029Z,0.50
2023-03-05T23:47:51.391Z,0.50
2023-03-05T23:50:36.239Z,0.60
2023-03-05T23:53:03.924Z,0.60
2023-03-05T23:55:37.587Z,0.50
2023-03-05T23:58:04.367Z,0.60
